Time;durP1;ratioP1;P1;durP2;ratioP2;P2;SDS_P1;SDS_P2;PMS_P1;PMS_P2;Temp;Humidity;BMP_temperature;BMP_pressure;BME280_temperature;BME280_humidity;BME280_pressure;Samples;Min_cycle;Max_cycle;Signal;HPM_P1;HPM_P2
2023/11/09 00:00:28;;;;;;;2.00;1.20;;;;;;;4.91;98.17;149903.94;10418581;28;20366;-71
2023/11/09 00:05:29;;;;;;;1.50;0.90;;;;;;;4.71;98.45;149852.56;10418253;28;20088;-71
2023/11/09 00:10:31;;;;;;;1.52;0.93;;;;;;;4.62;99.07;149829.41;10417385;28;20044;-71
2023/11/09 00:15:33;;;;;;;1.67;1.20;;;;;;;4.44;100.00;149785.72;10416543;28;20121;-71
2023/11/09 00:20:36;;;;;;;1.70;0.98;;;;;;;4.50;100.00;149801.13;10416019;28;20099;-71
2023/11/09 00:25:39;;;;;;;2.20;1.13;;;;;;;4.47;100.00;149793.44;10417881;28;20096;-71
2023/11/09 00:30:41;;;;;;;1.48;0.90;;;;;;;4.36;100.00;149765.16;10417113;28;20083;-71
2023/11/09 00:35:44;;;;;;;1.80;0.98;;;;;;;4.21;100.00;149726.63;10417288;28;20068;-71
2023/11/09 00:40:46;;;;;;;1.15;0.82;;;;;;;4.28;100.00;149745.88;10417408;28;20378;-71
2023/11/09 00:45:48;;;;;;;1.48;0.90;;;;;;;4.16;100.00;149713.75;10416713;28;20484;-72
2023/11/09 00:50:49;;;;;;;2.42;1.10;;;;;;;4.07;100.00;149690.63;10415251;28;20046;-72
2023/11/09 00:55:51;;;;;;;1.60;1.25;;;;;;;4.16;100.00;149715.09;10416980;28;20476;-71
2023/11/09 01:00:53;;;;;;;2.33;1.05;;;;;;;3.93;100.00;149657.22;10416778;28;20041;-71
2023/11/09 01:05:55;;;;;;;2.95;1.20;;;;;;;3.85;100.00;149635.41;10416813;28;20043;-71
2023/11/09 01:10:57;;;;;;;1.25;1.00;;;;;;;3.76;100.00;149613.56;10415196;28;20509;-71
2023/11/09 01:16:01;;;;;;;1.20;0.90;;;;;;;3.85;100.00;149636.72;10414357;28;20115;-71
2023/11/09 01:21:03;;;;;;;1.52;0.90;;;;;;;3.76;100.00;149613.56;10416559;28;20505;-69
2023/11/09 01:26:06;;;;;;;1.00;0.80;;;;;;;4.00;100.00;149675.22;10424079;28;20052;-69
2023/11/09 01:31:07;;;;;;;1.58;0.90;;;;;;;3.72;100.00;149604.63;10423207;28;20042;-69
2023/11/09 01:36:09;;;;;;;1.50;0.98;;;;;;;3.52;100.00;149554.50;10422361;28;20119;-70
2023/11/09 01:41:11;;;;;;;1.52;0.82;;;;;;;3.99;100.00;149672.69;10421839;28;20053;-70
2023/11/09 01:46:13;;;;;;;1.33;0.98;;;;;;;3.58;100.00;149568.63;10425431;28;20038;-69
2023/11/09 01:51:17;;;;;;;1.00;0.70;;;;;;;3.60;100.00;149572.50;10423887;28;20056;-69
2023/11/09 01:56:19;;;;;;;2.38;1.17;;;;;;;3.68;100.00;149594.34;10423063;28;20042;-69
2023/11/09 02:01:25;;;;;;;1.95;1.05;;;;;;;3.86;100.00;149638.00;10421518;28;20056;-69
2023/11/09 02:06:28;;;;;;;1.63;1.08;;;;;;;4.00;100.00;149675.22;10422268;28;20041;-69
2023/11/09 02:11:30;;;;;;;1.73;1.25;;;;;;;4.26;100.00;149739.47;10422660;28;20413;-69
2023/11/09 02:16:33;;;;;;;2.28;1.85;;;;;;;4.10;100.00;149699.63;10422094;28;20045;-69
2023/11/09 02:21:36;;;;;;;2.38;1.60;;;;;;;3.96;100.00;149663.69;10420913;28;20061;-69
2023/11/09 02:26:39;;;;;;;1.48;1.10;;;;;;;3.91;100.00;149650.84;10422045;28;20123;-69
2023/11/09 02:31:41;;;;;;;6.82;1.70;;;;;;;4.13;100.00;149706.06;10421649;28;20107;-69
2023/11/09 02:36:43;;;;;;;2.47;1.58;;;;;;;4.41;100.00;149776.72;10420989;28;20049;-69
2023/11/09 02:41:45;;;;;;;1.55;1.40;;;;;;;4.53;100.00;149808.84;10419668;28;20053;-69
2023/11/09 02:46:47;;;;;;;2.05;1.67;;;;;;;4.59;100.00;149822.97;10419056;28;20041;-69
2023/11/09 02:51:49;;;;;;;2.38;1.67;;;;;;;4.58;100.00;149820.41;10421718;28;20042;-70
2023/11/09 02:56:51;;;;;;;1.73;1.45;;;;;;;4.26;100.00;149740.75;10420207;28;20040;-70
2023/11/09 03:01:52;;;;;;;2.45;1.63;;;;;;;4.10;100.00;149698.34;10419791;28;20064;-70
2023/11/09 03:06:54;;;;;;;2.25;1.52;;;;;;;4.20;100.00;149725.31;10420559;28;20221;-70
2023/11/09 03:11:56;;;;;;;3.08;1.80;;;;;;;4.30;100.00;149751.03;10418520;28;20045;-70
2023/11/09 03:16:59;;;;;;;2.05;1.75;;;;;;;4.43;100.00;149781.88;10419989;28;20140;-70
2023/11/09 03:22:02;;;;;;;3.42;1.77;;;;;;;4.41;100.00;149778.00;10419520;28;20042;-70
2023/11/09 03:27:09;;;;;;;3.65;1.95;;;;;;;4.52;100.00;149805.00;10419539;28;20057;-70
2023/11/09 03:32:11;;;;;;;3.03;1.98;;;;;;;4.81;100.00;149878.25;10419692;28;20374;-69
2023/11/09 03:37:13;;;;;;;2.75;1.60;;;;;;;5.00;100.00;149927.13;10418968;28;20049;-69
2023/11/09 03:42:15;;;;;;;2.88;1.88;;;;;;;5.12;100.00;149955.38;10418651;28;20048;-69
2023/11/09 03:47:18;;;;;;;2.53;1.63;;;;;;;5.12;100.00;149956.66;10418425;28;20056;-69
2023/11/09 03:52:20;;;;;;;2.33;1.30;;;;;;;5.07;100.00;149943.81;10417895;28;20088;-70
2023/11/09 03:57:22;;;;;;;2.65;1.50;;;;;;;5.07;100.00;149943.81;10418092;28;20112;-70
2023/11/09 04:02:24;;;;;;;2.05;1.63;;;;;;;4.88;100.00;149896.25;10416595;28;20092;-69
2023/11/09 04:07:26;;;;;;;2.55;1.48;;;;;;;5.03;100.00;149933.53;10418013;28;20068;-70
2023/11/09 04:12:28;;;;;;;3.42;1.45;;;;;;;4.87;100.00;149892.38;10417964;28;20072;-70
2023/11/09 04:17:31;;;;;;;3.13;1.75;;;;;;;5.03;100.00;149934.78;10417511;28;20056;-70
2023/11/09 04:22:34;;;;;;;2.95;2.50;;;;;;;4.78;100.00;149870.50;10417279;28;20034;-70
2023/11/09 04:27:37;;;;;;;3.42;1.85;;;;;;;4.57;100.00;149817.84;10416807;28;20513;-70
2023/11/09 04:32:39;;;;;;;2.72;2.00;;;;;;;4.39;100.00;149772.88;10418315;28;20091;-71
2023/11/09 04:37:41;;;;;;;2.10;1.55;;;;;;;4.27;100.00;149742.03;10417106;28;20048;-70
2023/11/09 04:42:46;;;;;;;2.63;1.90;;;;;;;4.41;100.00;149778.00;10416651;28;20116;-70
2023/11/09 04:47:55;;;;;;;2.90;1.92;;;;;;;4.54;100.00;149811.41;10417063;28;20416;-71
2023/11/09 04:53:04;;;;;;;2.97;2.30;;;;;;;4.54;100.00;149811.41;10417122;28;20100;-69
2023/11/09 05:08:46;;;;;;;3.25;2.08;;;;;;;4.64;100.00;149834.53;10416104;28;20045;-69
2023/11/09 05:13:48;;;;;;;4.63;2.00;;;;;;;4.65;100.00;149838.44;10415675;28;20044;-69
2023/11/09 05:18:51;;;;;;;3.33;2.47;;;;;;;4.80;100.00;149875.69;10415565;28;20038;-70
2023/11/09 05:23:53;;;;;;;3.55;2.45;;;;;;;4.87;100.00;149892.38;10415948;28;20099;-70
2023/11/09 05:28:55;;;;;;;3.15;2.15;;;;;;;4.84;100.00;149884.69;10415238;28;20046;-69
2023/11/09 05:33:57;;;;;;;5.63;2.20;;;;;;;4.67;100.00;149843.53;10414408;28;20041;-69
2023/11/09 05:38:58;;;;;;;3.45;2.30;;;;;;;4.97;100.00;149919.38;10415468;28;20056;-69
2023/11/09 05:44:00;;;;;;;2.92;2.53;;;;;;;4.75;100.00;149862.84;10415172;28;20042;-69
2023/11/09 05:49:04;;;;;;;4.15;2.38;;;;;;;4.78;100.00;149871.84;10414795;28;20099;-69
2023/11/09 05:54:06;;;;;;;4.75;2.45;;;;;;;4.67;100.00;149843.53;10413704;28;20535;-70
2023/11/09 05:59:11;;;;;;;4.28;2.55;;;;;;;4.68;100.00;149846.09;10415573;28;20056;-69
2023/11/09 06:04:13;;;;;;;4.78;2.05;;;;;;;5.11;100.00;149954.09;10414726;28;20041;-69
2023/11/09 06:09:15;;;;;;;3.72;3.00;;;;;;;5.03;100.00;149934.78;10417527;28;20413;-70
2023/11/09 06:14:17;;;;;;;3.45;2.33;;;;;;;4.75;100.00;149864.13;10423534;28;20060;-70
2023/11/09 06:19:19;;;;;;;4.20;2.60;;;;;;;4.62;100.00;149830.69;10421902;28;20041;-70
2023/11/09 06:24:21;;;;;;;4.00;2.65;;;;;;;4.53;100.00;149807.56;10422289;28;20489;-70
2023/11/09 06:29:23;;;;;;;3.78;2.90;;;;;;;4.51;100.00;149803.69;10421221;28;20212;-70
2023/11/09 06:34:26;;;;;;;3.00;2.35;;;;;;;4.84;100.00;149885.97;10420344;28;20452;-70
2023/11/09 06:39:29;;;;;;;2.42;1.98;;;;;;;4.77;100.00;149867.94;10421089;28;20045;-70
2023/11/09 06:44:31;;;;;;;2.13;1.90;;;;;;;4.81;100.00;149879.53;10419822;28;20044;-69
2023/11/09 06:49:33;;;;;;;4.18;2.47;;;;;;;4.92;100.00;149905.25;10420339;28;20037;-69
2023/11/09 06:54:34;;;;;;;4.15;2.22;;;;;;;5.27;100.00;149993.97;10420229;28;20132;-69
2023/11/09 06:59:37;;;;;;;3.65;2.33;;;;;;;5.56;98.23;150068.53;10418758;28;20057;-69
2023/11/09 07:04:39;;;;;;;3.08;2.03;;;;;;;5.64;97.03;150087.84;10420370;28;20112;-69
2023/11/09 07:09:41;;;;;;;2.30;1.85;;;;;;;6.28;90.58;150249.97;10420028;28;20465;-69
2023/11/09 07:14:43;;;;;;;2.80;1.65;;;;;;;6.41;88.08;150282.13;10419436;28;20112;-68
2023/11/09 07:19:48;;;;;;;2.22;1.52;;;;;;;6.52;87.21;150310.47;10419316;28;20071;-70
2023/11/09 07:24:52;;;;;;;3.00;1.50;;;;;;;6.42;87.15;150284.75;10418114;28;20038;-70
2023/11/09 07:30:08;;;;;;;2.97;1.30;;;;;;;6.51;87.27;150307.91;10418184;28;20049;-70
2023/11/09 07:35:10;;;;;;;3.03;1.83;;;;;;;6.57;89.04;150323.34;10417837;28;20095;-70
2023/11/09 07:40:13;;;;;;;2.63;1.80;;;;;;;6.72;87.83;150360.66;10417905;28;20041;-70
2023/11/09 07:45:16;;;;;;;2.00;1.60;;;;;;;7.04;85.73;150440.53;10418351;28;20497;-69
2023/11/09 07:50:17;;;;;;;1.38;1.27;;;;;;;7.56;80.73;150571.84;10417419;28;20052;-69
2023/11/09 07:55:19;;;;;;;2.30;1.20;;;;;;;7.43;82.04;150539.63;10417562;28;20042;-69
2023/11/09 08:00:23;;;;;;;2.28;1.30;;;;;;;7.63;79.54;150588.63;10417505;28;20049;-69
2023/11/09 08:05:25;;;;;;;2.17;1.38;;;;;;;7.56;79.56;150573.13;10417064;28;20056;-69
2023/11/09 08:10:27;;;;;;;1.98;1.10;;;;;;;7.60;78.88;150582.16;10416492;28;20386;-69
2023/11/09 08:15:29;;;;;;;2.38;1.52;;;;;;;7.68;77.40;150601.50;10416829;28;20045;-69
2023/11/09 08:20:31;;;;;;;1.17;1.02;;;;;;;7.73;77.88;150614.38;10416116;28;20044;-69
2023/11/09 08:25:33;;;;;;;1.85;1.10;;;;;;;8.13;75.65;150714.88;10416049;28;20528;-69
2023/11/09 08:30:35;;;;;;;1.20;1.10;;;;;;;8.14;75.72;150718.72;10415272;28;20072;-69
2023/11/09 08:35:38;;;;;;;1.83;1.15;;;;;;;8.04;74.46;150694.25;10416056;28;20049;-69
2023/11/09 08:40:42;;;;;;;2.92;1.30;;;;;;;8.14;73.76;150718.72;10415546;28;20057;-69
2023/11/09 08:45:44;;;;;;;2.03;1.73;;;;;;;8.32;73.94;150763.84;10414010;28;20099;-69
2023/11/09 08:50:47;;;;;;;1.95;1.25;;;;;;;8.30;74.18;150758.69;10415654;28;20083;-69
2023/11/09 08:55:48;;;;;;;1.77;1.20;;;;;;;8.53;72.21;150818.03;10415159;28;20057;-70
2023/11/09 09:00:51;;;;;;;2.45;1.80;;;;;;;8.69;71.05;150856.72;10415105;28;20493;-69
2023/11/09 09:05:55;;;;;;;2.30;1.52;;;;;;;8.72;71.77;150864.44;10415524;28;20061;-69
2023/11/09 09:10:57;;;;;;;2.88;1.30;;;;;;;8.93;70.96;150918.59;10415466;28;20500;-70
2023/11/09 09:16:00;;;;;;;1.85;1.38;;;;;;;9.06;70.24;150950.84;10414058;28;20045;-71
2023/11/09 09:21:03;;;;;;;1.48;1.02;;;;;;;9.25;69.22;150999.88;10408327;28;20030;-70
2023/11/09 09:26:07;;;;;;;2.97;1.45;;;;;;;9.22;69.44;150990.84;10430360;28;20045;-70
2023/11/09 09:31:19;;;;;;;2.38;1.17;;;;;;;9.39;68.77;151033.41;10372900;28;20060;-70
2023/11/09 09:36:22;;;;;;;1.67;0.73;;;;;;;9.47;69.76;151054.03;10374518;28;20121;-69
2023/11/09 09:41:37;;;;;;;1.70;1.10;;;;;;;9.69;67.80;151110.78;10373946;28;20045;-69
2023/11/09 09:46:42;;;;;;;1.48;1.00;;;;;;;9.89;68.43;151161.13;10382171;28;20208;-69
2023/11/09 09:51:46;;;;;;;2.72;0.90;;;;;;;10.18;65.70;151234.72;10382822;28;20048;-69
2023/11/09 09:56:48;;;;;;;2.67;0.95;;;;;;;10.38;65.50;151285.09;10381885;28;20048;-69
2023/11/09 10:01:50;;;;;;;1.10;0.82;;;;;;;10.59;65.40;151339.31;10382273;28;20053;-69
2023/11/09 10:06:52;;;;;;;0.88;0.80;;;;;;;10.75;64.54;151379.31;10381488;28;20065;-69
2023/11/09 10:11:54;;;;;;;1.00;0.77;;;;;;;10.97;62.78;151433.56;10364127;28;20557;-70
2023/11/09 10:16:56;;;;;;;1.60;0.90;;;;;;;11.19;61.39;151489.13;10381573;28;20065;-69
2023/11/09 10:22:05;;;;;;;2.20;0.93;;;;;;;11.18;60.63;151487.84;10381818;28;20421;-69
2023/11/09 10:27:08;;;;;;;1.17;0.70;;;;;;;11.58;59.10;151589.91;10381304;28;20045;-69
2023/11/09 10:32:19;;;;;;;0.80;0.68;;;;;;;11.83;58.03;151652.00;10381181;28;20050;-69
2023/11/09 10:37:22;;;;;;;0.80;0.57;;;;;;;12.61;51.06;151849.75;10382432;28;20497;-69
2023/11/09 10:42:25;;;;;;;0.82;0.40;;;;;;;12.90;47.26;151922.22;10380635;28;20053;-69
2023/11/09 10:47:33;;;;;;;;;;;;;;;13.01;44.61;151951.91;10381859;28;20489;-69
2023/11/09 10:52:34;;;;;;;0.38;0.20;;;;;;;13.26;45.75;152014.09;10380716;28;20366;-69
2023/11/09 10:57:40;;;;;;;0.15;0.10;;;;;;;13.70;42.74;152126.66;10379924;28;20552;-70
2023/11/09 11:02:52;;;;;;;0.40;0.20;;;;;;;14.26;42.08;152267.78;10380574;28;20050;-69
2023/11/09 11:08:06;;;;;;;0.25;0.20;;;;;;;14.52;43.11;152333.81;10379827;28;20486;-69
2023/11/09 11:13:10;;;;;;;0.30;0.20;;;;;;;15.24;42.91;152516.50;10379931;28;20116;-70
2023/11/09 11:18:31;;;;;;;0.32;0.30;;;;;;;15.09;38.96;152480.19;10379061;28;20141;-69
2023/11/09 11:23:48;;;;;;;0.32;0.13;;;;;;;14.33;40.59;152285.88;10379436;28;20046;-69
2023/11/09 11:28:49;;;;;;;5.95;0.35;;;;;;;13.93;41.58;152183.59;10378183;28;20069;-70
2023/11/09 11:33:51;;;;;;;0.40;0.28;;;;;;;14.21;41.43;152254.78;10379854;28;20046;-69
2023/11/09 11:39:20;;;;;;;0.35;0.20;;;;;;;13.66;44.47;152115.03;10378872;28;20070;-69
2023/11/09 11:44:23;;;;;;;0.80;0.30;;;;;;;13.47;44.86;152067.16;10377086;28;20137;-70
2023/11/09 11:49:40;;;;;;;;;;;;;;;13.52;42.44;152080.09;10377641;28;20381;-68
2023/11/09 11:54:42;;;;;;;3.10;0.40;;;;;;;13.04;45.44;151959.69;10378022;28;19921;-70
2023/11/09 12:00:02;;;;;;;1.17;0.35;;;;;;;13.01;43.08;151951.91;10376767;28;20060;-69
2023/11/09 12:05:07;;;;;;;0.40;0.25;;;;;;;12.75;44.82;151884.66;10377676;28;20049;-70
2023/11/09 12:10:16;;;;;;;0.32;0.28;;;;;;;12.58;47.71;151843.31;10377620;28;20143;-71
2023/11/09 12:15:25;;;;;;;0.20;0.20;;;;;;;12.65;46.80;151858.81;10378009;28;20500;-70
2023/11/09 12:20:30;;;;;;;0.68;0.52;;;;;;;12.48;47.28;151816.13;10375702;28;20054;-71
2023/11/09 12:25:51;;;;;;;0.80;0.30;;;;;;;12.33;48.78;151779.94;10374245;28;20104;-70
2023/11/09 12:30:54;;;;;;;0.40;0.32;;;;;;;12.34;46.05;151781.22;10375713;28;20046;-69
2023/11/09 12:36:03;;;;;;;0.45;0.40;;;;;;;12.29;47.09;151769.59;10376293;28;20447;-70
2023/11/09 12:41:06;;;;;;;0.43;0.40;;;;;;;12.25;46.77;151757.97;10377770;28;20050;-69
2023/11/09 12:46:14;;;;;;;0.57;0.50;;;;;;;12.21;46.65;151747.63;10376406;28;20045;-69
2023/11/09 12:51:24;;;;;;;0.60;0.43;;;;;;;12.17;47.86;151738.56;10376334;28;20045;-69
2023/11/09 12:56:27;;;;;;;0.50;0.30;;;;;;;12.23;47.71;151754.09;10375975;28;20498;-69
2023/11/09 13:01:38;;;;;;;1.05;0.40;;;;;;;12.12;47.92;151726.94;10376262;28;20137;-69
2023/11/09 13:06:40;;;;;;;0.60;0.40;;;;;;;12.06;48.82;151710.16;10376094;28;20120;-70
2023/11/09 13:11:42;;;;;;;1.05;0.40;;;;;;;12.03;48.64;151702.38;10374926;28;20502;-69
2023/11/09 13:16:45;;;;;;;0.55;0.32;;;;;;;11.83;50.24;151653.28;10375091;28;20044;-69
2023/11/09 13:21:48;;;;;;;0.50;0.30;;;;;;;11.86;49.35;151659.72;10388639;23;20608;-68
2023/11/09 13:26:50;;;;;;;1.48;0.50;;;;;;;12.03;48.44;151703.66;10373424;28;20145;-69
2023/11/09 13:31:56;;;;;;;0.52;0.35;;;;;;;11.91;49.37;151671.34;10373076;28;20042;-69
2023/11/09 13:36:58;;;;;;;0.30;0.30;;;;;;;11.85;48.72;151658.44;10374351;28;20038;-70
2023/11/09 13:42:08;;;;;;;1.50;0.50;;;;;;;11.67;48.96;151610.56;10374158;28;20092;-69
2023/11/09 13:47:12;;;;;;;0.57;0.40;;;;;;;11.65;50.31;151605.44;10373763;28;20066;-69
2023/11/09 13:52:18;;;;;;;1.50;0.52;;;;;;;11.59;51.08;151591.19;10374171;28;20050;-68
2023/11/09 13:57:23;;;;;;;3.17;0.80;;;;;;;11.55;49.37;151580.84;10374050;28;20128;-67
2023/11/09 14:02:29;;;;;;;1.15;0.40;;;;;;;11.51;50.28;151570.50;10373550;28;20104;-67
2023/11/09 14:07:32;;;;;;;1.50;0.65;;;;;;;11.43;52.27;151549.88;10374655;28;20490;-68
2023/11/09 14:12:37;;;;;;;1.00;0.68;;;;;;;11.47;51.73;151561.50;10373514;28;20045;-68
2023/11/09 14:17:39;;;;;;;0.43;0.30;;;;;;;11.26;52.92;151507.22;10371877;28;20042;-68
2023/11/09 14:22:41;;;;;;;1.10;0.47;;;;;;;11.35;52.65;151530.47;10372114;28;20050;-68
2023/11/09 14:27:42;;;;;;;0.90;0.60;;;;;;;11.24;54.23;151503.31;10373039;28;20041;-69
2023/11/09 14:32:44;;;;;;;0.80;0.50;;;;;;;11.16;54.72;151481.41;10378381;28;20069;-69
2023/11/09 14:37:46;;;;;;;0.50;0.30;;;;;;;11.13;55.81;151474.91;10379687;28;20041;-69
2023/11/09 14:42:50;;;;;;;1.27;0.65;;;;;;;10.97;56.10;151434.88;10379365;28;20068;-68
2023/11/09 14:48:11;;;;;;;1.05;0.40;;;;;;;10.93;56.70;151424.53;10379694;28;20034;-69
2023/11/09 14:53:19;;;;;;;1.02;0.47;;;;;;;10.79;58.18;151388.38;10379234;28;20057;-67
2023/11/09 14:58:34;;;;;;;0.55;0.50;;;;;;;10.64;59.40;151350.94;10378911;28;20045;-68
2023/11/09 15:03:38;;;;;;;2.78;0.60;;;;;;;10.72;60.15;151371.63;10378801;28;20049;-68
2023/11/09 15:08:40;;;;;;;1.10;0.43;;;;;;;10.49;61.61;151313.53;10378250;28;20081;-68
2023/11/09 15:13:46;;;;;;;1.00;0.63;;;;;;;10.45;62.65;151301.91;10378177;28;20518;-68
2023/11/09 15:18:50;;;;;;;0.82;0.65;;;;;;;10.43;62.45;151296.72;10377719;28;20041;-68
2023/11/09 15:23:52;;;;;;;0.85;0.68;;;;;;;10.47;61.72;151308.31;10377376;28;20121;-69
2023/11/09 15:28:55;;;;;;;1.35;0.45;;;;;;;10.50;61.69;151316.09;10377405;28;20052;-68
2023/11/09 15:33:57;;;;;;;0.80;0.63;;;;;;;10.39;62.23;151287.66;10377828;28;20046;-68
2023/11/09 15:38:59;;;;;;;0.80;0.55;;;;;;;10.46;62.57;151304.47;10376982;28;20050;-68
2023/11/09 15:44:04;;;;;;;0.60;0.50;;;;;;;10.36;62.76;151279.94;10376531;28;20408;-68
2023/11/09 15:49:10;;;;;;;1.77;0.77;;;;;;;10.49;62.83;151313.53;10377133;28;20116;-67
2023/11/09 15:54:12;;;;;;;1.20;0.60;;;;;;;10.47;62.46;151307.03;10376255;28;20049;-67
2023/11/09 15:59:15;;;;;;;0.80;0.57;;;;;;;10.27;63.33;151258.00;10376092;28;20045;-68
2023/11/09 16:04:18;;;;;;;51.83;21.95;;;;;;;10.32;64.13;151269.63;10375842;28;20548;-68
2023/11/09 16:09:27;;;;;;;1.80;1.17;;;;;;;10.19;64.32;151236.00;10375444;28;20046;-68
2023/11/09 16:14:29;;;;;;;3.47;2.10;;;;;;;10.17;65.11;151230.81;10376128;28;20057;-68
2023/11/09 16:19:31;;;;;;;3.65;2.90;;;;;;;10.17;65.83;151232.09;10376360;28;20153;-68
2023/11/09 16:24:37;;;;;;;2.10;1.20;;;;;;;10.19;66.09;151236.00;10375205;28;20046;-68
2023/11/09 16:29:39;;;;;;;5.75;3.08;;;;;;;10.13;66.84;151220.50;10375114;28;20044;-68
2023/11/09 16:34:41;;;;;;;1.60;0.90;;;;;;;10.24;66.94;151248.91;10374843;28;20092;-69
2023/11/09 16:39:48;;;;;;;1.33;0.82;;;;;;;9.96;69.10;151177.88;10374842;28;20065;-67
2023/11/09 16:44:50;;;;;;;1.00;0.70;;;;;;;10.03;69.23;151195.97;10374147;28;20042;-67
2023/11/09 16:49:55;;;;;;;5.55;3.50;;;;;;;10.13;69.39;151220.50;10374359;28;20050;-67
2023/11/09 16:54:57;;;;;;;130.35;54.72;;;;;;;9.95;70.78;151175.31;10373281;28;20068;-67
2023/11/09 16:59:59;;;;;;;2.15;1.70;;;;;;;9.88;72.25;151157.28;10373921;28;20046;-68
2023/11/09 17:05:02;;;;;;;1.05;0.80;;;;;;;10.23;71.24;151246.34;10373302;28;20041;-69
2023/11/09 17:10:07;;;;;;;6.97;4.43;;;;;;;10.08;72.75;151210.16;10392746;28;20046;-68
2023/11/09 17:15:09;;;;;;;6.78;3.25;;;;;;;10.07;73.76;151206.31;10379646;28;20037;-68
2023/11/09 17:20:13;;;;;;;1.33;0.88;;;;;;;10.40;72.70;151290.22;10415350;28;20073;-67
2023/11/09 17:25:15;;;;;;;1.58;0.80;;;;;;;10.32;73.30;151270.91;10398979;28;20112;-69
2023/11/09 17:30:17;;;;;;;1.30;0.80;;;;;;;10.40;73.46;151288.94;10374386;28;20102;-68
2023/11/09 17:35:19;;;;;;;3.67;1.40;;;;;;;10.41;73.54;151292.84;10374054;28;20045;-68
2023/11/09 17:40:22;;;;;;;2.53;1.13;;;;;;;10.18;74.76;151233.41;10374420;28;20046;-68
2023/11/09 17:45:25;;;;;;;0.80;0.40;;;;;;;10.28;75.16;151259.28;10332333;28;20409;-69
2023/11/09 17:50:26;;;;;;;0.80;0.50;;;;;;;10.54;73.80;151326.44;10332397;28;20046;-70
2023/11/09 17:55:28;;;;;;;2.35;0.95;;;;;;;10.41;75.09;151291.56;10372093;28;20116;-68
2023/11/09 18:00:30;;;;;;;0.60;0.47;;;;;;;10.61;73.37;151344.47;10414465;28;20064;-69
2023/11/09 18:05:32;;;;;;;0.70;0.40;;;;;;;10.94;71.06;151427.16;10419056;28;20048;-69
2023/11/09 18:10:35;;;;;;;0.60;0.40;;;;;;;10.83;71.95;151400.00;10422342;28;20061;-69
2023/11/09 18:15:39;;;;;;;0.88;0.60;;;;;;;10.95;71.03;151429.72;10420689;28;20042;-68
2023/11/09 18:20:42;;;;;;;0.70;0.50;;;;;;;10.91;71.93;151419.38;10422259;28;20073;-69
2023/11/09 18:25:43;;;;;;;1.02;0.80;;;;;;;10.79;72.93;151389.66;10422551;28;20056;-68
2023/11/09 18:30:47;;;;;;;0.82;0.60;;;;;;;10.78;72.75;151385.81;10421164;28;20412;-68
2023/11/09 18:35:50;;;;;;;0.43;0.40;;;;;;;10.93;71.48;151424.53;10422414;28;20034;-70
2023/11/09 18:40:51;;;;;;;1.05;0.30;;;;;;;10.98;70.82;151437.47;10421463;28;20038;-69
2023/11/09 18:45:54;;;;;;;0.55;0.50;;;;;;;10.97;69.82;151434.88;10421196;28;20561;-69
2023/11/09 18:50:56;;;;;;;0.80;0.38;;;;;;;11.04;69.77;151451.69;10421984;28;20489;-68
2023/11/09 18:56:00;;;;;;;1.10;0.40;;;;;;;11.09;68.66;151464.59;10420432;28;20215;-69
2023/11/09 19:01:03;;;;;;;0.73;0.57;;;;;;;11.00;70.29;151441.34;10420517;28;20505;-68
2023/11/09 19:06:06;;;;;;;1.27;0.60;;;;;;;10.85;74.09;151403.91;10420126;28;20042;-68
2023/11/09 19:11:10;;;;;;;0.50;0.50;;;;;;;10.70;76.69;151365.13;10419609;28;20049;-68
2023/11/09 19:16:13;;;;;;;1.30;0.70;;;;;;;10.54;79.39;151325.13;10418646;28;20459;-68
2023/11/09 19:21:15;;;;;;;0.82;0.65;;;;;;;10.24;84.06;151248.91;10423147;23;20045;-68
2023/11/09 19:26:19;;;;;;;1.50;0.80;;;;;;;9.87;89.56;151155.94;10380092;28;20038;-67
2023/11/09 19:31:22;;;;;;;1.10;0.65;;;;;;;9.71;91.42;151114.69;10379731;28;20132;-67
2023/11/09 19:36:25;;;;;;;2.08;1.15;;;;;;;9.70;95.91;151112.13;10380041;28;20121;-67
2023/11/09 19:41:27;;;;;;;3.88;1.67;;;;;;;9.37;100.00;151028.22;10380571;28;20042;-67
2023/11/09 19:46:29;;;;;;;4.05;1.50;;;;;;;9.20;100.00;150985.66;10379300;28;20045;-68
2023/11/09 19:51:32;;;;;;;3.15;1.73;;;;;;;9.15;100.00;150974.06;10378757;28;20072;-68
2023/11/09 19:56:34;;;;;;;3.35;1.58;;;;;;;9.33;100.00;151019.19;10378778;28;20614;-67
2023/11/09 20:01:36;;;;;;;3.10;1.65;;;;;;;9.33;100.00;151019.19;10379772;28;20452;-69
2023/11/09 20:06:39;;;;;;;2.58;1.50;;;;;;;9.33;100.00;151020.47;10376923;28;20042;-69
2023/11/09 20:11:42;;;;;;;6.07;0.90;;;;;;;9.21;100.00;150988.22;10379414;28;20473;-68
2023/11/09 20:16:43;;;;;;;1.42;1.05;;;;;;;9.01;100.00;150939.25;10378629;28;20448;-68
2023/11/09 20:21:46;;;;;;;2.20;0.93;;;;;;;8.98;100.00;150931.47;10377634;28;20133;-69
2023/11/09 20:26:54;;;;;;;1.05;0.90;;;;;;;9.04;100.00;150945.72;10377418;28;20040;-69
2023/11/09 20:32:00;;;;;;;0.73;0.70;;;;;;;8.98;100.00;150930.19;10378582;28;20042;-69
2023/11/09 20:37:02;;;;;;;0.68;0.63;;;;;;;8.95;100.00;150922.50;10377701;28;20061;-69
2023/11/09 20:42:05;;;;;;;1.45;0.93;;;;;;;8.90;100.00;150909.56;10375709;28;20053;-69
2023/11/09 20:47:07;;;;;;;1.60;1.13;;;;;;;8.95;100.00;150922.50;10375641;28;20042;-70
2023/11/09 20:52:09;;;;;;;1.20;1.00;;;;;;;8.91;100.00;150913.47;10375810;28;20042;-67
2023/11/09 20:57:14;;;;;;;1.15;1.00;;;;;;;8.95;100.00;150922.50;10374983;28;20113;-67
2023/11/09 21:02:16;;;;;;;1.23;0.90;;;;;;;8.80;100.00;150886.34;10374615;28;20061;-68
2023/11/09 21:07:19;;;;;;;2.00;1.00;;;;;;;8.70;100.00;150860.59;10374494;28;20041;-68
2023/11/09 21:12:21;;;;;;;1.25;1.05;;;;;;;8.70;100.00;150859.28;10374133;28;20067;-69
2023/11/09 21:17:26;;;;;;;1.45;0.98;;;;;;;8.59;100.00;150832.25;10373067;28;20046;-68
2023/11/09 21:22:27;;;;;;;1.45;1.08;;;;;;;8.50;100.00;150809.00;10374925;28;20050;-68
2023/11/09 21:27:29;;;;;;;3.28;0.90;;;;;;;8.41;100.00;150787.13;10356852;28;20425;-70
2023/11/09 21:32:31;;;;;;;2.25;1.15;;;;;;;8.42;100.00;150789.69;10375287;28;20052;-69
2023/11/09 21:37:36;;;;;;;1.80;1.10;;;;;;;8.38;100.00;150778.09;10373682;28;20116;-69
2023/11/09 21:42:38;;;;;;;1.50;1.00;;;;;;;8.53;100.00;150818.03;10382288;28;20050;-69
2023/11/09 21:47:40;;;;;;;1.40;1.00;;;;;;;8.48;100.00;150803.84;10381722;28;20042;-68
2023/11/09 21:52:42;;;;;;;1.67;1.40;;;;;;;8.45;100.00;150796.09;10381376;28;20409;-69
2023/11/09 21:57:44;;;;;;;1.67;1.23;;;;;;;8.35;100.00;150771.59;10381193;28;20089;-69
2023/11/09 22:02:46;;;;;;;1.83;1.33;;;;;;;8.20;100.00;150732.94;10381250;28;20046;-69
2023/11/09 22:07:51;;;;;;;1.02;0.93;;;;;;;8.16;100.00;150722.63;10381309;28;20133;-68
2023/11/09 22:12:55;;;;;;;1.17;0.95;;;;;;;8.10;100.00;150708.41;10380750;28;20077;-68
2023/11/09 22:17:58;;;;;;;1.45;1.25;;;;;;;8.12;100.00;150712.31;10380080;28;20053;-68
2023/11/09 22:22:59;;;;;;;1.50;1.27;;;;;;;8.11;100.00;150709.75;10380580;28;20037;-68
2023/11/09 22:28:01;;;;;;;2.25;1.30;;;;;;;8.17;100.00;150726.47;10379732;28;20038;-68
2023/11/09 22:33:03;;;;;;;1.45;0.95;;;;;;;8.12;100.00;150712.31;10379740;28;20052;-68
2023/11/09 22:38:05;;;;;;;1.33;1.02;;;;;;;8.13;100.00;150714.88;10379554;28;20409;-68
2023/11/09 22:43:07;;;;;;;1.23;0.90;;;;;;;8.20;100.00;150734.22;10380191;28;20057;-69
2023/11/09 22:48:09;;;;;;;1.67;1.10;;;;;;;8.16;100.00;150723.91;10379117;28;20073;-69
2023/11/09 22:53:12;;;;;;;1.20;1.10;;;;;;;8.12;100.00;150713.59;10377590;28;20054;-68
2023/11/09 22:58:14;;;;;;;1.20;0.80;;;;;;;8.13;100.00;150714.88;10380510;28;20074;-68
2023/11/09 23:03:20;;;;;;;0.80;0.80;;;;;;;7.97;100.00;150676.22;10378487;28;20046;-69
2023/11/09 23:08:23;;;;;;;2.03;0.90;;;;;;;8.00;100.00;150683.94;10378951;28;20046;-69
2023/11/09 23:13:24;;;;;;;0.80;0.60;;;;;;;8.14;100.00;150718.72;10378506;28;20042;-68
2023/11/09 23:18:28;;;;;;;1.17;0.52;;;;;;;8.07;100.00;150700.72;10377767;28;20069;-68
2023/11/09 23:23:33;;;;;;;1.13;0.60;;;;;;;7.98;100.00;150678.81;10377890;28;20053;-68
2023/11/09 23:28:35;;;;;;;0.85;0.60;;;;;;;8.00;100.00;150683.94;10377414;28;20042;-68